INU weather

Nauru International Airport
Yaren District, Yaren, Nauru

Public forecast

Using degrees Celsius for public forecast. Weather courtesy of forecast.io.

METAR (pilot weather report)

Closest report is Bonriki International Airport, 391.4 nm (724.9 km) ENE. Retrieved 2019/03/26 23:00 UTC (1 hour ago):

NGTA 262300Z 06009KT 9999 VCSH FEW016CB SCT018TCU 29/26 Q1009 RERA

TAF (pilot weather forecast)

Forecast is more than 12 hours old.

Retrieved 2019/03/24 18:00 UTC (2 days ago):

TAF ANYN 241603Z 2418/2518 02008KT 9999 -SHRA SCT018 BKN140 T 26 30 32 31 Q 1009 1011 1010 1008=